KATP

Atlantis

Atlantis, Louisiana, USA
METAR KATP 182335Z AUTO 00000KT 10SM CLR 29/23 A3003 RMK A01
Observed Flight Rules
Aug-18 @ 23:35 UTC (12 minutes ago) Visual Flight Rules
Visibility Clouds
10 miles
  • Clear skies
Temperatures Readings
Current 29°C / 84°F
Dewpoint 23°C / 73°F
Humidity 70%
Altimeter 30.03" Hg
Pressure 1017 hPa
Elevation 62
METAR KATP 182335Z AUTO 00000KT 10SM CLR 29/23 A3003 RMK A01
Observed Flight Rules
Aug-18 @ 23:35 UTC
(12 minutes ago)
VFR
Clouds
  • Clear skies
Temperature Dewpoint
29°C / 84°F 23°C / 73°F
Humidity Altimeter Pressure
70% 30.03" Hg 1017 hPa